sensor_id;sensor_type;location;lat;lon;timestamp;P1;durP1;ratioP1;P2;durP2;ratioP2
41253;SDS011;26987;59.928;30.306;2022-07-10T00:01:18;8.20;;;4.45;;
41253;SDS011;26987;59.928;30.306;2022-07-10T00:03:47;6.85;;;4.57;;
41253;SDS011;26987;59.928;30.306;2022-07-10T00:06:18;7.03;;;3.88;;
41253;SDS011;26987;59.928;30.306;2022-07-10T00:08:47;5.82;;;4.15;;
41253;SDS011;26987;59.928;30.306;2022-07-10T00:11:19;5.05;;;3.58;;
41253;SDS011;26987;59.928;30.306;2022-07-10T00:13:48;7.13;;;4.25;;
41253;SDS011;26987;59.928;30.306;2022-07-10T00:16:17;11.80;;;4.53;;
41253;SDS011;26987;59.928;30.306;2022-07-10T00:18:46;7.63;;;4.65;;
41253;SDS011;26987;59.928;30.306;2022-07-10T00:21:14;9.32;;;4.32;;
41253;SDS011;26987;59.928;30.306;2022-07-10T00:23:44;9.38;;;4.55;;
41253;SDS011;26987;59.928;30.306;2022-07-10T00:26:12;8.57;;;4.20;;
41253;SDS011;26987;59.928;30.306;2022-07-10T00:28:41;8.85;;;4.38;;
41253;SDS011;26987;59.928;30.306;2022-07-10T00:31:10;8.18;;;4.57;;
41253;SDS011;26987;59.928;30.306;2022-07-10T00:33:38;9.32;;;3.47;;
41253;SDS011;26987;59.928;30.306;2022-07-10T00:36:08;6.28;;;4.20;;
41253;SDS011;26987;59.928;30.306;2022-07-10T00:38:36;7.95;;;4.25;;
41253;SDS011;26987;59.928;30.306;2022-07-10T00:41:06;6.47;;;4.03;;
41253;SDS011;26987;59.928;30.306;2022-07-10T00:46:19;9.05;;;4.35;;
41253;SDS011;26987;59.928;30.306;2022-07-10T00:48:48;8.20;;;4.10;;
41253;SDS011;26987;59.928;30.306;2022-07-10T00:51:19;5.78;;;4.10;;
41253;SDS011;26987;59.928;30.306;2022-07-10T00:53:55;6.35;;;4.40;;
41253;SDS011;26987;59.928;30.306;2022-07-10T00:56:27;6.28;;;4.05;;
41253;SDS011;26987;59.928;30.306;2022-07-10T00:58:56;8.50;;;4.47;;
41253;SDS011;26987;59.928;30.306;2022-07-10T01:01:29;7.65;;;4.10;;
41253;SDS011;26987;59.928;30.306;2022-07-10T01:03:58;5.05;;;3.97;;
41253;SDS011;26987;59.928;30.306;2022-07-10T01:06:26;5.80;;;3.90;;
41253;SDS011;26987;59.928;30.306;2022-07-10T01:08:55;7.00;;;4.35;;
41253;SDS011;26987;59.928;30.306;2022-07-10T01:11:23;9.27;;;4.63;;
41253;SDS011;26987;59.928;30.306;2022-07-10T01:13:53;6.38;;;4.13;;
41253;SDS011;26987;59.928;30.306;2022-07-10T01:16:22;5.47;;;4.00;;
41253;SDS011;26987;59.928;30.306;2022-07-10T01:18:51;7.75;;;4.30;;
41253;SDS011;26987;59.928;30.306;2022-07-10T01:21:26;6.43;;;3.75;;
41253;SDS011;26987;59.928;30.306;2022-07-10T01:23:55;6.15;;;4.45;;
41253;SDS011;26987;59.928;30.306;2022-07-10T01:26:24;7.65;;;4.30;;
41253;SDS011;26987;59.928;30.306;2022-07-10T01:28:53;5.25;;;4.10;;
41253;SDS011;26987;59.928;30.306;2022-07-10T01:31:24;5.18;;;3.65;;
41253;SDS011;26987;59.928;30.306;2022-07-10T01:33:54;7.45;;;4.45;;
41253;SDS011;26987;59.928;30.306;2022-07-10T01:36:24;7.93;;;4.45;;
41253;SDS011;26987;59.928;30.306;2022-07-10T01:38:56;6.60;;;4.20;;
41253;SDS011;26987;59.928;30.306;2022-07-10T01:41:25;6.72;;;4.05;;
41253;SDS011;26987;59.928;30.306;2022-07-10T01:43:54;8.90;;;5.30;;
41253;SDS011;26987;59.928;30.306;2022-07-10T01:46:23;11.85;;;4.82;;
41253;SDS011;26987;59.928;30.306;2022-07-10T01:48:53;9.40;;;4.88;;
41253;SDS011;26987;59.928;30.306;2022-07-10T01:51:22;8.30;;;5.05;;
41253;SDS011;26987;59.928;30.306;2022-07-10T01:53:52;8.43;;;4.65;;
41253;SDS011;26987;59.928;30.306;2022-07-10T01:56:23;9.07;;;5.82;;
41253;SDS011;26987;59.928;30.306;2022-07-10T01:58:53;10.20;;;5.22;;
41253;SDS011;26987;59.928;30.306;2022-07-10T02:01:22;10.38;;;5.00;;
41253;SDS011;26987;59.928;30.306;2022-07-10T02:03:51;9.88;;;5.05;;
41253;SDS011;26987;59.928;30.306;2022-07-10T02:06:33;9.75;;;6.03;;
41253;SDS011;26987;59.928;30.306;2022-07-10T02:09:03;7.47;;;5.28;;
41253;SDS011;26987;59.928;30.306;2022-07-10T02:11:32;7.35;;;4.90;;
41253;SDS011;26987;59.928;30.306;2022-07-10T02:14:01;10.63;;;5.50;;
41253;SDS011;26987;59.928;30.306;2022-07-10T02:16:29;8.18;;;4.80;;
41253;SDS011;26987;59.928;30.306;2022-07-10T02:18:58;6.22;;;4.47;;
41253;SDS011;26987;59.928;30.306;2022-07-10T02:21:26;8.13;;;3.97;;
41253;SDS011;26987;59.928;30.306;2022-07-10T02:23:55;6.05;;;3.63;;
41253;SDS011;26987;59.928;30.306;2022-07-10T02:26:24;8.90;;;4.18;;
41253;SDS011;26987;59.928;30.306;2022-07-10T02:28:52;6.75;;;4.30;;
41253;SDS011;26987;59.928;30.306;2022-07-10T02:31:20;11.40;;;4.18;;
41253;SDS011;26987;59.928;30.306;2022-07-10T02:33:48;7.93;;;3.95;;
41253;SDS011;26987;59.928;30.306;2022-07-10T02:36:16;9.68;;;4.30;;
41253;SDS011;26987;59.928;30.306;2022-07-10T02:38:44;8.35;;;4.88;;
41253;SDS011;26987;59.928;30.306;2022-07-10T02:41:12;7.13;;;4.32;;
41253;SDS011;26987;59.928;30.306;2022-07-10T02:43:43;6.93;;;4.38;;
41253;SDS011;26987;59.928;30.306;2022-07-10T02:46:11;7.30;;;4.78;;
41253;SDS011;26987;59.928;30.306;2022-07-10T02:48:39;8.15;;;4.70;;
41253;SDS011;26987;59.928;30.306;2022-07-10T02:51:08;7.18;;;4.22;;
41253;SDS011;26987;59.928;30.306;2022-07-10T02:53:37;7.30;;;4.32;;
41253;SDS011;26987;59.928;30.306;2022-07-10T02:56:05;5.43;;;3.70;;
41253;SDS011;26987;59.928;30.306;2022-07-10T02:58:34;8.77;;;4.18;;
41253;SDS011;26987;59.928;30.306;2022-07-10T03:01:06;6.53;;;4.47;;
41253;SDS011;26987;59.928;30.306;2022-07-10T03:03:35;6.55;;;4.07;;
41253;SDS011;26987;59.928;30.306;2022-07-10T03:06:03;5.57;;;3.40;;
41253;SDS011;26987;59.928;30.306;2022-07-10T03:08:32;6.55;;;3.80;;
41253;SDS011;26987;59.928;30.306;2022-07-10T03:11:02;4.70;;;3.78;;
41253;SDS011;26987;59.928;30.306;2022-07-10T03:13:30;7.80;;;4.55;;
41253;SDS011;26987;59.928;30.306;2022-07-10T03:15:59;4.95;;;4.05;;
41253;SDS011;26987;59.928;30.306;2022-07-10T03:18:29;5.63;;;3.97;;
41253;SDS011;26987;59.928;30.306;2022-07-10T03:20:58;7.45;;;4.63;;
41253;SDS011;26987;59.928;30.306;2022-07-10T03:23:26;14.45;;;5.82;;
41253;SDS011;26987;59.928;30.306;2022-07-10T03:25:54;7.13;;;4.80;;
41253;SDS011;26987;59.928;30.306;2022-07-10T03:28:22;6.50;;;4.78;;
41253;SDS011;26987;59.928;30.306;2022-07-10T03:30:50;8.88;;;4.50;;
41253;SDS011;26987;59.928;30.306;2022-07-10T03:33:18;7.75;;;4.95;;
41253;SDS011;26987;59.928;30.306;2022-07-10T03:35:47;8.05;;;5.00;;
41253;SDS011;26987;59.928;30.306;2022-07-10T03:38:15;7.60;;;4.55;;
41253;SDS011;26987;59.928;30.306;2022-07-10T03:40:43;6.00;;;4.72;;
41253;SDS011;26987;59.928;30.306;2022-07-10T03:43:14;7.68;;;4.93;;
41253;SDS011;26987;59.928;30.306;2022-07-10T03:45:42;6.35;;;4.75;;
41253;SDS011;26987;59.928;30.306;2022-07-10T03:48:10;5.85;;;4.72;;
41253;SDS011;26987;59.928;30.306;2022-07-10T03:50:38;6.50;;;4.30;;
41253;SDS011;26987;59.928;30.306;2022-07-10T03:53:08;8.18;;;4.68;;
41253;SDS011;26987;59.928;30.306;2022-07-10T03:55:36;9.63;;;4.72;;
41253;SDS011;26987;59.928;30.306;2022-07-10T03:58:05;7.05;;;3.60;;
41253;SDS011;26987;59.928;30.306;2022-07-10T04:00:32;5.97;;;3.80;;
41253;SDS011;26987;59.928;30.306;2022-07-10T04:03:05;8.68;;;3.72;;
41253;SDS011;26987;59.928;30.306;2022-07-10T04:05:34;6.72;;;4.13;;
41253;SDS011;26987;59.928;30.306;2022-07-10T04:08:04;7.40;;;4.50;;
41253;SDS011;26987;59.928;30.306;2022-07-10T04:10:34;8.57;;;3.53;;
41253;SDS011;26987;59.928;30.306;2022-07-10T04:13:02;5.10;;;3.20;;
41253;SDS011;26987;59.928;30.306;2022-07-10T04:15:30;5.95;;;3.10;;
41253;SDS011;26987;59.928;30.306;2022-07-10T04:17:58;5.97;;;3.38;;
41253;SDS011;26987;59.928;30.306;2022-07-10T04:20:26;4.10;;;2.72;;
41253;SDS011;26987;59.928;30.306;2022-07-10T04:22:54;4.22;;;2.80;;
41253;SDS011;26987;59.928;30.306;2022-07-10T04:25:21;3.42;;;2.45;;
41253;SDS011;26987;59.928;30.306;2022-07-10T04:27:51;6.03;;;2.92;;
41253;SDS011;26987;59.928;30.306;2022-07-10T04:30:19;8.93;;;2.70;;
41253;SDS011;26987;59.928;30.306;2022-07-10T04:32:47;4.45;;;2.45;;
41253;SDS011;26987;59.928;30.306;2022-07-10T04:35:18;4.85;;;2.53;;
41253;SDS011;26987;59.928;30.306;2022-07-10T04:37:46;4.13;;;2.60;;
41253;SDS011;26987;59.928;30.306;2022-07-10T04:40:18;3.88;;;2.33;;
41253;SDS011;26987;59.928;30.306;2022-07-10T04:42:47;3.67;;;2.20;;
41253;SDS011;26987;59.928;30.306;2022-07-10T04:45:18;4.65;;;2.67;;
41253;SDS011;26987;59.928;30.306;2022-07-10T04:47:49;4.38;;;2.50;;
41253;SDS011;26987;59.928;30.306;2022-07-10T04:50:18;4.20;;;2.40;;
41253;SDS011;26987;59.928;30.306;2022-07-10T04:52:47;4.70;;;2.63;;
41253;SDS011;26987;59.928;30.306;2022-07-10T04:55:16;4.53;;;2.83;;
41253;SDS011;26987;59.928;30.306;2022-07-10T04:57:45;3.58;;;2.70;;
41253;SDS011;26987;59.928;30.306;2022-07-10T05:00:14;2.33;;;1.73;;
41253;SDS011;26987;59.928;30.306;2022-07-10T05:02:45;4.20;;;2.30;;
41253;SDS011;26987;59.928;30.306;2022-07-10T05:05:14;3.13;;;1.90;;
41253;SDS011;26987;59.928;30.306;2022-07-10T05:07:43;5.93;;;2.20;;
41253;SDS011;26987;59.928;30.306;2022-07-10T05:10:13;4.13;;;2.70;;
41253;SDS011;26987;59.928;30.306;2022-07-10T05:12:41;5.28;;;3.03;;
41253;SDS011;26987;59.928;30.306;2022-07-10T05:15:10;7.18;;;3.50;;
41253;SDS011;26987;59.928;30.306;2022-07-10T05:17:38;5.38;;;3.22;;
41253;SDS011;26987;59.928;30.306;2022-07-10T05:20:07;5.30;;;2.63;;
41253;SDS011;26987;59.928;30.306;2022-07-10T05:22:36;3.90;;;3.05;;
41253;SDS011;26987;59.928;30.306;2022-07-10T05:25:04;4.72;;;2.85;;
41253;SDS011;26987;59.928;30.306;2022-07-10T05:27:33;5.10;;;3.08;;
41253;SDS011;26987;59.928;30.306;2022-07-10T05:30:01;4.38;;;2.67;;
41253;SDS011;26987;59.928;30.306;2022-07-10T05:32:28;2.60;;;1.80;;
41253;SDS011;26987;59.928;30.306;2022-07-10T05:34:57;2.03;;;1.55;;
41253;SDS011;26987;59.928;30.306;2022-07-10T05:37:26;3.22;;;1.60;;
41253;SDS011;26987;59.928;30.306;2022-07-10T05:39:54;2.15;;;1.52;;
41253;SDS011;26987;59.928;30.306;2022-07-10T05:42:23;4.53;;;1.58;;
41253;SDS011;26987;59.928;30.306;2022-07-10T05:44:52;2.00;;;1.38;;
41253;SDS011;26987;59.928;30.306;2022-07-10T05:47:20;2.38;;;1.90;;
41253;SDS011;26987;59.928;30.306;2022-07-10T05:49:49;3.85;;;2.35;;
41253;SDS011;26987;59.928;30.306;2022-07-10T05:52:20;6.15;;;2.08;;
41253;SDS011;26987;59.928;30.306;2022-07-10T05:54:50;3.78;;;2.40;;
41253;SDS011;26987;59.928;30.306;2022-07-10T05:57:20;5.97;;;2.45;;
41253;SDS011;26987;59.928;30.306;2022-07-10T05:59:49;3.88;;;2.05;;
41253;SDS011;26987;59.928;30.306;2022-07-10T06:02:17;3.92;;;2.10;;
41253;SDS011;26987;59.928;30.306;2022-07-10T06:04:46;3.97;;;2.30;;
41253;SDS011;26987;59.928;30.306;2022-07-10T06:07:14;4.82;;;2.20;;
41253;SDS011;26987;59.928;30.306;2022-07-10T06:09:44;4.20;;;2.03;;
41253;SDS011;26987;59.928;30.306;2022-07-10T06:12:14;2.20;;;1.60;;
41253;SDS011;26987;59.928;30.306;2022-07-10T06:14:42;2.45;;;1.90;;
41253;SDS011;26987;59.928;30.306;2022-07-10T06:17:10;2.78;;;1.88;;
41253;SDS011;26987;59.928;30.306;2022-07-10T06:19:38;4.43;;;1.60;;
41253;SDS011;26987;59.928;30.306;2022-07-10T06:22:06;2.28;;;1.52;;
41253;SDS011;26987;59.928;30.306;2022-07-10T06:27:20;2.55;;;1.70;;
41253;SDS011;26987;59.928;30.306;2022-07-10T06:29:49;2.88;;;1.60;;
41253;SDS011;26987;59.928;30.306;2022-07-10T06:32:18;2.72;;;1.58;;
41253;SDS011;26987;59.928;30.306;2022-07-10T06:34:50;3.05;;;1.60;;
41253;SDS011;26987;59.928;30.306;2022-07-10T06:37:19;5.10;;;2.60;;
41253;SDS011;26987;59.928;30.306;2022-07-10T06:39:48;4.22;;;2.25;;
41253;SDS011;26987;59.928;30.306;2022-07-10T06:42:17;5.47;;;2.28;;
41253;SDS011;26987;59.928;30.306;2022-07-10T06:44:51;2.63;;;1.95;;
41253;SDS011;26987;59.928;30.306;2022-07-10T06:47:19;5.40;;;2.10;;
41253;SDS011;26987;59.928;30.306;2022-07-10T06:50:07;4.95;;;2.17;;
41253;SDS011;26987;59.928;30.306;2022-07-10T06:52:36;3.72;;;2.10;;
41253;SDS011;26987;59.928;30.306;2022-07-10T06:55:06;3.40;;;2.05;;
41253;SDS011;26987;59.928;30.306;2022-07-10T06:57:37;2.63;;;1.90;;
41253;SDS011;26987;59.928;30.306;2022-07-10T07:00:07;2.28;;;1.70;;
41253;SDS011;26987;59.928;30.306;2022-07-10T07:02:41;6.95;;;3.45;;
41253;SDS011;26987;59.928;30.306;2022-07-10T07:05:10;4.80;;;2.00;;
41253;SDS011;26987;59.928;30.306;2022-07-10T07:07:39;5.30;;;2.28;;
41253;SDS011;26987;59.928;30.306;2022-07-10T07:10:09;4.43;;;2.42;;
41253;SDS011;26987;59.928;30.306;2022-07-10T07:12:43;3.35;;;2.08;;
41253;SDS011;26987;59.928;30.306;2022-07-10T07:15:11;4.78;;;3.40;;
41253;SDS011;26987;59.928;30.306;2022-07-10T07:17:42;3.90;;;2.75;;
41253;SDS011;26987;59.928;30.306;2022-07-10T07:20:24;3.92;;;2.67;;
41253;SDS011;26987;59.928;30.306;2022-07-10T07:23:10;4.05;;;2.50;;
41253;SDS011;26987;59.928;30.306;2022-07-10T07:25:40;2.97;;;2.67;;
41253;SDS011;26987;59.928;30.306;2022-07-10T07:28:14;5.03;;;2.85;;
41253;SDS011;26987;59.928;30.306;2022-07-10T07:30:43;4.07;;;3.03;;
41253;SDS011;26987;59.928;30.306;2022-07-10T07:33:12;4.07;;;2.92;;
41253;SDS011;26987;59.928;30.306;2022-07-10T07:35:40;5.13;;;3.25;;
41253;SDS011;26987;59.928;30.306;2022-07-10T07:38:08;4.40;;;3.05;;
41253;SDS011;26987;59.928;30.306;2022-07-10T07:40:37;3.60;;;2.90;;
41253;SDS011;26987;59.928;30.306;2022-07-10T07:43:05;4.55;;;2.92;;
41253;SDS011;26987;59.928;30.306;2022-07-10T07:45:34;7.47;;;3.10;;
41253;SDS011;26987;59.928;30.306;2022-07-10T07:48:02;7.00;;;3.67;;
41253;SDS011;26987;59.928;30.306;2022-07-10T07:50:31;3.67;;;2.80;;
41253;SDS011;26987;59.928;30.306;2022-07-10T07:53:00;5.07;;;3.20;;
41253;SDS011;26987;59.928;30.306;2022-07-10T07:55:30;6.78;;;3.22;;
41253;SDS011;26987;59.928;30.306;2022-07-10T07:57:59;5.97;;;3.22;;
41253;SDS011;26987;59.928;30.306;2022-07-10T08:00:29;3.67;;;3.05;;
41253;SDS011;26987;59.928;30.306;2022-07-10T08:03:00;5.22;;;3.13;;
41253;SDS011;26987;59.928;30.306;2022-07-10T08:05:28;3.90;;;3.22;;
41253;SDS011;26987;59.928;30.306;2022-07-10T08:07:58;8.27;;;3.60;;
41253;SDS011;26987;59.928;30.306;2022-07-10T08:10:31;4.18;;;3.28;;
41253;SDS011;26987;59.928;30.306;2022-07-10T08:13:01;13.35;;;3.85;;
41253;SDS011;26987;59.928;30.306;2022-07-10T08:15:30;7.00;;;2.67;;
41253;SDS011;26987;59.928;30.306;2022-07-10T08:18:02;3.95;;;3.05;;
41253;SDS011;26987;59.928;30.306;2022-07-10T08:20:32;3.67;;;2.75;;
41253;SDS011;26987;59.928;30.306;2022-07-10T08:23:03;3.80;;;3.35;;
41253;SDS011;26987;59.928;30.306;2022-07-10T08:25:37;5.68;;;3.45;;
41253;SDS011;26987;59.928;30.306;2022-07-10T08:28:06;4.45;;;3.50;;
41253;SDS011;26987;59.928;30.306;2022-07-10T08:30:36;5.05;;;3.70;;
41253;SDS011;26987;59.928;30.306;2022-07-10T08:33:06;9.52;;;3.15;;
41253;SDS011;26987;59.928;30.306;2022-07-10T08:35:34;10.45;;;3.75;;
41253;SDS011;26987;59.928;30.306;2022-07-10T08:38:03;4.43;;;2.72;;
41253;SDS011;26987;59.928;30.306;2022-07-10T08:40:35;6.63;;;3.00;;
41253;SDS011;26987;59.928;30.306;2022-07-10T08:43:03;6.72;;;2.63;;
41253;SDS011;26987;59.928;30.306;2022-07-10T08:45:36;3.85;;;2.35;;
41253;SDS011;26987;59.928;30.306;2022-07-10T08:48:09;4.47;;;2.47;;
41253;SDS011;26987;59.928;30.306;2022-07-10T08:50:42;3.85;;;2.42;;
41253;SDS011;26987;59.928;30.306;2022-07-10T08:53:16;4.25;;;2.53;;
41253;SDS011;26987;59.928;30.306;2022-07-10T08:55:51;4.05;;;2.55;;
41253;SDS011;26987;59.928;30.306;2022-07-10T08:58:20;4.20;;;2.20;;
41253;SDS011;26987;59.928;30.306;2022-07-10T09:00:51;9.38;;;2.55;;
41253;SDS011;26987;59.928;30.306;2022-07-10T09:03:21;5.60;;;2.67;;
41253;SDS011;26987;59.928;30.306;2022-07-10T09:05:50;3.83;;;2.75;;
41253;SDS011;26987;59.928;30.306;2022-07-10T09:08:21;3.97;;;2.25;;
41253;SDS011;26987;59.928;30.306;2022-07-10T09:10:51;6.43;;;2.47;;
41253;SDS011;26987;59.928;30.306;2022-07-10T09:13:20;3.10;;;1.92;;
41253;SDS011;26987;59.928;30.306;2022-07-10T09:15:51;6.75;;;2.00;;
41253;SDS011;26987;59.928;30.306;2022-07-10T09:18:23;3.58;;;1.92;;
41253;SDS011;26987;59.928;30.306;2022-07-10T09:20:53;3.95;;;1.95;;
41253;SDS011;26987;59.928;30.306;2022-07-10T09:23:22;8.55;;;2.20;;
41253;SDS011;26987;59.928;30.306;2022-07-10T09:25:52;2.30;;;1.73;;
41253;SDS011;26987;59.928;30.306;2022-07-10T09:28:24;3.47;;;1.63;;
41253;SDS011;26987;59.928;30.306;2022-07-10T09:30:53;2.05;;;1.70;;
41253;SDS011;26987;59.928;30.306;2022-07-10T09:33:23;5.80;;;2.42;;
41253;SDS011;26987;59.928;30.306;2022-07-10T09:36:03;2.95;;;2.30;;
41253;SDS011;26987;59.928;30.306;2022-07-10T09:38:50;3.97;;;2.17;;
41253;SDS011;26987;59.928;30.306;2022-07-10T09:41:21;3.70;;;2.20;;
41253;SDS011;26987;59.928;30.306;2022-07-10T09:43:52;3.10;;;2.13;;
41253;SDS011;26987;59.928;30.306;2022-07-10T09:46:23;4.68;;;2.30;;
41253;SDS011;26987;59.928;30.306;2022-07-10T09:49:05;5.07;;;2.42;;
41253;SDS011;26987;59.928;30.306;2022-07-10T09:51:36;3.42;;;2.22;;
41253;SDS011;26987;59.928;30.306;2022-07-10T09:54:07;5.18;;;2.60;;
41253;SDS011;26987;59.928;30.306;2022-07-10T09:56:39;4.90;;;2.63;;
41253;SDS011;26987;59.928;30.306;2022-07-10T09:59:13;11.75;;;3.30;;
41253;SDS011;26987;59.928;30.306;2022-07-10T10:01:42;4.45;;;2.83;;
41253;SDS011;26987;59.928;30.306;2022-07-10T10:04:15;5.50;;;2.90;;
41253;SDS011;26987;59.928;30.306;2022-07-10T10:06:45;4.50;;;3.00;;
41253;SDS011;26987;59.928;30.306;2022-07-10T10:09:21;5.28;;;3.17;;
41253;SDS011;26987;59.928;30.306;2022-07-10T10:11:54;4.82;;;2.75;;
41253;SDS011;26987;59.928;30.306;2022-07-10T10:14:30;7.05;;;2.47;;
41253;SDS011;26987;59.928;30.306;2022-07-10T10:17:01;5.65;;;3.20;;
41253;SDS011;26987;59.928;30.306;2022-07-10T10:19:34;6.70;;;3.22;;
41253;SDS011;26987;59.928;30.306;2022-07-10T10:22:21;7.68;;;3.30;;
41253;SDS011;26987;59.928;30.306;2022-07-10T10:24:51;4.35;;;2.80;;
41253;SDS011;26987;59.928;30.306;2022-07-10T10:27:21;6.32;;;3.80;;
41253;SDS011;26987;59.928;30.306;2022-07-10T10:29:51;5.15;;;2.75;;
41253;SDS011;26987;59.928;30.306;2022-07-10T10:32:20;6.45;;;2.83;;
41253;SDS011;26987;59.928;30.306;2022-07-10T10:34:53;4.40;;;3.03;;
41253;SDS011;26987;59.928;30.306;2022-07-10T10:37:32;3.38;;;2.78;;
41253;SDS011;26987;59.928;30.306;2022-07-10T10:40:05;5.80;;;2.80;;
41253;SDS011;26987;59.928;30.306;2022-07-10T10:42:36;3.90;;;3.10;;
41253;SDS011;26987;59.928;30.306;2022-07-10T10:48:09;5.47;;;2.65;;
41253;SDS011;26987;59.928;30.306;2022-07-10T10:50:41;4.18;;;2.88;;
41253;SDS011;26987;59.928;30.306;2022-07-10T10:53:13;6.03;;;2.85;;
41253;SDS011;26987;59.928;30.306;2022-07-10T10:58:51;3.90;;;3.08;;
41253;SDS011;26987;59.928;30.306;2022-07-10T11:01:29;2.53;;;1.98;;
41253;SDS011;26987;59.928;30.306;2022-07-10T11:04:14;2.65;;;2.17;;
41253;SDS011;26987;59.928;30.306;2022-07-10T11:06:46;3.05;;;2.63;;
41253;SDS011;26987;59.928;30.306;2022-07-10T11:09:26;2.45;;;2.17;;
41253;SDS011;26987;59.928;30.306;2022-07-10T11:12:03;4.40;;;2.47;;
41253;SDS011;26987;59.928;30.306;2022-07-10T11:14:33;2.83;;;2.38;;
41253;SDS011;26987;59.928;30.306;2022-07-10T11:17:04;4.30;;;2.90;;
41253;SDS011;26987;59.928;30.306;2022-07-10T11:19:34;6.75;;;2.58;;
41253;SDS011;26987;59.928;30.306;2022-07-10T11:22:08;4.70;;;2.50;;
41253;SDS011;26987;59.928;30.306;2022-07-10T11:24:52;4.35;;;2.70;;
41253;SDS011;26987;59.928;30.306;2022-07-10T11:27:34;7.53;;;3.00;;
41253;SDS011;26987;59.928;30.306;2022-07-10T11:30:18;6.68;;;2.78;;
41253;SDS011;26987;59.928;30.306;2022-07-10T11:32:46;4.22;;;2.88;;
41253;SDS011;26987;59.928;30.306;2022-07-10T11:35:16;6.15;;;3.70;;
41253;SDS011;26987;59.928;30.306;2022-07-10T11:37:50;4.97;;;4.03;;
41253;SDS011;26987;59.928;30.306;2022-07-10T11:40:19;4.68;;;3.40;;
41253;SDS011;26987;59.928;30.306;2022-07-10T11:42:48;4.25;;;3.70;;
41253;SDS011;26987;59.928;30.306;2022-07-10T11:45:25;4.82;;;3.65;;
41253;SDS011;26987;59.928;30.306;2022-07-10T11:47:54;4.72;;;4.07;;
41253;SDS011;26987;59.928;30.306;2022-07-10T11:50:23;10.27;;;5.45;;
41253;SDS011;26987;59.928;30.306;2022-07-10T11:52:53;6.70;;;4.05;;
41253;SDS011;26987;59.928;30.306;2022-07-10T11:55:22;4.85;;;3.97;;
41253;SDS011;26987;59.928;30.306;2022-07-10T11:57:51;5.70;;;3.90;;
41253;SDS011;26987;59.928;30.306;2022-07-10T12:00:23;8.77;;;3.95;;
41253;SDS011;26987;59.928;30.306;2022-07-10T12:02:52;5.88;;;3.78;;
41253;SDS011;26987;59.928;30.306;2022-07-10T12:05:32;7.45;;;3.45;;
41253;SDS011;26987;59.928;30.306;2022-07-10T12:08:08;4.72;;;2.75;;
41253;SDS011;26987;59.928;30.306;2022-07-10T12:10:37;3.58;;;2.78;;
41253;SDS011;26987;59.928;30.306;2022-07-10T12:13:08;2.45;;;1.85;;
41253;SDS011;26987;59.928;30.306;2022-07-10T12:15:38;2.55;;;2.20;;
41253;SDS011;26987;59.928;30.306;2022-07-10T12:18:15;2.45;;;2.25;;
41253;SDS011;26987;59.928;30.306;2022-07-10T12:20:45;2.75;;;2.10;;
41253;SDS011;26987;59.928;30.306;2022-07-10T12:23:16;4.03;;;1.85;;
41253;SDS011;26987;59.928;30.306;2022-07-10T12:25:46;3.78;;;2.67;;
41253;SDS011;26987;59.928;30.306;2022-07-10T12:28:16;3.55;;;2.08;;
41253;SDS011;26987;59.928;30.306;2022-07-10T12:30:45;3.55;;;2.03;;
41253;SDS011;26987;59.928;30.306;2022-07-10T12:33:16;6.95;;;2.55;;
41253;SDS011;26987;59.928;30.306;2022-07-10T12:35:53;2.97;;;2.20;;
41253;SDS011;26987;59.928;30.306;2022-07-10T12:38:27;4.75;;;2.72;;
41253;SDS011;26987;59.928;30.306;2022-07-10T12:41:06;3.58;;;2.13;;
41253;SDS011;26987;59.928;30.306;2022-07-10T12:43:36;3.35;;;2.00;;
41253;SDS011;26987;59.928;30.306;2022-07-10T12:46:12;4.55;;;1.92;;
41253;SDS011;26987;59.928;30.306;2022-07-10T12:48:43;4.15;;;2.28;;
41253;SDS011;26987;59.928;30.306;2022-07-10T12:51:29;3.42;;;2.47;;
41253;SDS011;26987;59.928;30.306;2022-07-10T12:54:00;5.95;;;2.15;;
41253;SDS011;26987;59.928;30.306;2022-07-10T12:56:33;5.85;;;1.80;;
41253;SDS011;26987;59.928;30.306;2022-07-10T12:59:02;3.05;;;1.63;;
41253;SDS011;26987;59.928;30.306;2022-07-10T13:01:41;2.35;;;1.73;;
41253;SDS011;26987;59.928;30.306;2022-07-10T13:04:22;2.65;;;1.85;;
41253;SDS011;26987;59.928;30.306;2022-07-10T13:06:51;5.22;;;1.80;;
41253;SDS011;26987;59.928;30.306;2022-07-10T13:09:22;2.70;;;1.83;;
41253;SDS011;26987;59.928;30.306;2022-07-10T13:11:53;3.08;;;1.88;;
41253;SDS011;26987;59.928;30.306;2022-07-10T13:14:22;6.47;;;2.35;;
41253;SDS011;26987;59.928;30.306;2022-07-10T13:16:53;2.85;;;1.67;;
41253;SDS011;26987;59.928;30.306;2022-07-10T13:19:22;3.70;;;2.15;;
41253;SDS011;26987;59.928;30.306;2022-07-10T13:21:51;4.38;;;2.33;;
41253;SDS011;26987;59.928;30.306;2022-07-10T13:24:22;4.75;;;2.22;;
41253;SDS011;26987;59.928;30.306;2022-07-10T13:26:53;4.30;;;2.95;;
41253;SDS011;26987;59.928;30.306;2022-07-10T13:29:23;5.07;;;2.90;;
41253;SDS011;26987;59.928;30.306;2022-07-10T13:31:52;4.53;;;2.70;;
41253;SDS011;26987;59.928;30.306;2022-07-10T13:34:20;2.72;;;2.00;;
41253;SDS011;26987;59.928;30.306;2022-07-10T13:36:49;2.85;;;1.80;;
41253;SDS011;26987;59.928;30.306;2022-07-10T13:39:20;4.88;;;1.50;;
41253;SDS011;26987;59.928;30.306;2022-07-10T13:41:49;1.90;;;1.23;;
41253;SDS011;26987;59.928;30.306;2022-07-10T13:44:17;2.72;;;1.58;;
41253;SDS011;26987;59.928;30.306;2022-07-10T13:46:45;3.40;;;2.35;;
41253;SDS011;26987;59.928;30.306;2022-07-10T13:49:13;4.43;;;1.90;;
41253;SDS011;26987;59.928;30.306;2022-07-10T13:51:41;6.07;;;2.08;;
41253;SDS011;26987;59.928;30.306;2022-07-10T13:54:09;5.40;;;2.70;;
41253;SDS011;26987;59.928;30.306;2022-07-10T13:56:38;3.92;;;2.08;;
41253;SDS011;26987;59.928;30.306;2022-07-10T13:59:06;4.20;;;2.13;;
41253;SDS011;26987;59.928;30.306;2022-07-10T14:01:35;4.45;;;2.17;;
41253;SDS011;26987;59.928;30.306;2022-07-10T14:04:03;6.32;;;2.30;;
41253;SDS011;26987;59.928;30.306;2022-07-10T14:06:31;3.78;;;2.13;;
41253;SDS011;26987;59.928;30.306;2022-07-10T14:08:59;3.67;;;2.08;;
41253;SDS011;26987;59.928;30.306;2022-07-10T14:11:27;4.80;;;2.10;;
41253;SDS011;26987;59.928;30.306;2022-07-10T14:13:57;3.08;;;2.65;;
41253;SDS011;26987;59.928;30.306;2022-07-10T14:16:26;5.80;;;2.60;;
41253;SDS011;26987;59.928;30.306;2022-07-10T14:18:54;7.78;;;3.08;;
41253;SDS011;26987;59.928;30.306;2022-07-10T14:21:22;6.93;;;2.97;;
41253;SDS011;26987;59.928;30.306;2022-07-10T14:23:53;4.07;;;2.60;;
41253;SDS011;26987;59.928;30.306;2022-07-10T14:26:22;4.70;;;2.60;;
41253;SDS011;26987;59.928;30.306;2022-07-10T14:28:51;4.05;;;2.20;;
41253;SDS011;26987;59.928;30.306;2022-07-10T14:31:21;4.20;;;2.78;;
41253;SDS011;26987;59.928;30.306;2022-07-10T14:33:50;6.00;;;2.33;;
41253;SDS011;26987;59.928;30.306;2022-07-10T14:36:18;3.35;;;2.15;;
41253;SDS011;26987;59.928;30.306;2022-07-10T14:38:48;3.92;;;2.40;;
41253;SDS011;26987;59.928;30.306;2022-07-10T14:41:17;4.50;;;2.42;;
41253;SDS011;26987;59.928;30.306;2022-07-10T14:43:46;3.83;;;2.28;;
41253;SDS011;26987;59.928;30.306;2022-07-10T14:46:14;4.93;;;2.90;;
41253;SDS011;26987;59.928;30.306;2022-07-10T14:48:43;3.47;;;2.08;;
41253;SDS011;26987;59.928;30.306;2022-07-10T14:51:11;6.53;;;3.00;;
41253;SDS011;26987;59.928;30.306;2022-07-10T14:53:39;5.53;;;2.42;;
41253;SDS011;26987;59.928;30.306;2022-07-10T14:56:07;5.50;;;2.42;;
41253;SDS011;26987;59.928;30.306;2022-07-10T14:58:36;2.65;;;2.33;;
41253;SDS011;26987;59.928;30.306;2022-07-10T15:01:07;4.10;;;1.90;;
41253;SDS011;26987;59.928;30.306;2022-07-10T15:03:39;3.97;;;2.17;;